sensor_id;sensor_type;location;lat;lon;timestamp;temperature;humidity
64874;HTU21D;51367;45.204;38.576;2022-09-09T00:04:13;10.86;60.28
64874;HTU21D;51367;45.204;38.576;2022-09-09T00:06:46;10.77;60.50
64874;HTU21D;51367;45.204;38.576;2022-09-09T00:09:20;10.68;60.66
64874;HTU21D;51367;45.204;38.576;2022-09-09T00:14:59;10.56;60.89
64874;HTU21D;51367;45.204;38.576;2022-09-09T00:17:36;10.51;61.06
64874;HTU21D;51367;45.204;38.576;2022-09-09T00:20:13;10.46;61.15
64874;HTU21D;51367;45.204;38.576;2022-09-09T00:23:05;10.44;61.20
64874;HTU21D;51367;45.204;38.576;2022-09-09T00:26:03;10.42;61.36
64874;HTU21D;51367;45.204;38.576;2022-09-09T00:28:34;10.40;61.14
64874;HTU21D;51367;45.204;38.576;2022-09-09T00:31:13;10.39;61.24
64874;HTU21D;51367;45.204;38.576;2022-09-09T00:33:40;10.35;61.21
64874;HTU21D;51367;45.204;38.576;2022-09-09T00:36:18;10.27;61.39
64874;HTU21D;51367;45.204;38.576;2022-09-09T00:38:56;10.25;61.54
64874;HTU21D;51367;45.204;38.576;2022-09-09T00:41:31;10.25;61.45
64874;HTU21D;51367;45.204;38.576;2022-09-09T00:44:18;10.24;61.53
64874;HTU21D;51367;45.204;38.576;2022-09-09T00:47:10;10.19;61.66
64874;HTU21D;51367;45.204;38.576;2022-09-09T00:55:15;10.16;61.71
64874;HTU21D;51367;45.204;38.576;2022-09-09T00:57:41;10.16;61.54
64874;HTU21D;51367;45.204;38.576;2022-09-09T01:00:24;10.14;61.73
64874;HTU21D;51367;45.204;38.576;2022-09-09T01:02:59;10.13;61.63
64874;HTU21D;51367;45.204;38.576;2022-09-09T01:10:56;10.05;61.57
64874;HTU21D;51367;45.204;38.576;2022-09-09T01:13:29;10.05;61.67
64874;HTU21D;51367;45.204;38.576;2022-09-09T01:16:07;10.06;61.85
64874;HTU21D;51367;45.204;38.576;2022-09-09T01:18:44;10.03;61.86
64874;HTU21D;51367;45.204;38.576;2022-09-09T01:24:25;9.99;62.06
64874;HTU21D;51367;45.204;38.576;2022-09-09T01:27:11;9.99;61.92
64874;HTU21D;51367;45.204;38.576;2022-09-09T01:29:40;9.98;61.96
64874;HTU21D;51367;45.204;38.576;2022-09-09T01:32:46;9.96;62.20
64874;HTU21D;51367;45.204;38.576;2022-09-09T01:38:16;9.78;62.33
64874;HTU21D;51367;45.204;38.576;2022-09-09T01:40:44;9.72;62.46
64874;HTU21D;51367;45.204;38.576;2022-09-09T01:43:11;9.70;62.57
64874;HTU21D;51367;45.204;38.576;2022-09-09T01:45:39;9.72;62.64
64874;HTU21D;51367;45.204;38.576;2022-09-09T01:48:07;9.71;62.67
64874;HTU21D;51367;45.204;38.576;2022-09-09T01:50:45;9.74;62.68
64874;HTU21D;51367;45.204;38.576;2022-09-09T01:53:12;9.74;62.71
64874;HTU21D;51367;45.204;38.576;2022-09-09T01:55:47;9.77;62.73
64874;HTU21D;51367;45.204;38.576;2022-09-09T01:58:36;9.79;62.89
64874;HTU21D;51367;45.204;38.576;2022-09-09T02:01:45;9.78;62.87
64874;HTU21D;51367;45.204;38.576;2022-09-09T02:07:00;9.74;62.73
64874;HTU21D;51367;45.204;38.576;2022-09-09T02:09:29;9.68;62.90
64874;HTU21D;51367;45.204;38.576;2022-09-09T02:12:11;9.62;63.19
64874;HTU21D;51367;45.204;38.576;2022-09-09T02:14:52;9.57;63.23
64874;HTU21D;51367;45.204;38.576;2022-09-09T02:17:31;9.57;63.35
64874;HTU21D;51367;45.204;38.576;2022-09-09T02:20:10;9.60;63.26
64874;HTU21D;51367;45.204;38.576;2022-09-09T02:22:48;9.62;63.25
64874;HTU21D;51367;45.204;38.576;2022-09-09T02:25:20;9.63;63.24
64874;HTU21D;51367;45.204;38.576;2022-09-09T02:27:50;9.64;63.23
64874;HTU21D;51367;45.204;38.576;2022-09-09T02:30:18;9.63;63.24
64874;HTU21D;51367;45.204;38.576;2022-09-09T02:32:52;9.61;63.27
64874;HTU21D;51367;45.204;38.576;2022-09-09T02:35:29;9.49;63.44
64874;HTU21D;51367;45.204;38.576;2022-09-09T02:38:01;9.41;63.64
64874;HTU21D;51367;45.204;38.576;2022-09-09T02:40:28;9.39;63.73
64874;HTU21D;51367;45.204;38.576;2022-09-09T02:42:59;9.35;63.71
64874;HTU21D;51367;45.204;38.576;2022-09-09T02:48:29;9.15;64.06
64874;HTU21D;51367;45.204;38.576;2022-09-09T02:51:14;9.11;64.18
64874;HTU21D;51367;45.204;38.576;2022-09-09T02:56:35;9.14;64.01
64874;HTU21D;51367;45.204;38.576;2022-09-09T02:59:05;9.12;63.95
64874;HTU21D;51367;45.204;38.576;2022-09-09T03:01:33;9.10;63.98
64874;HTU21D;51367;45.204;38.576;2022-09-09T03:04:03;9.10;64.01
64874;HTU21D;51367;45.204;38.576;2022-09-09T03:06:30;9.10;64.05
64874;HTU21D;51367;45.204;38.576;2022-09-09T03:09:05;9.12;64.02
64874;HTU21D;51367;45.204;38.576;2022-09-09T03:11:31;9.10;64.05
64874;HTU21D;51367;45.204;38.576;2022-09-09T03:13:58;9.07;64.15
64874;HTU21D;51367;45.204;38.576;2022-09-09T03:16:25;9.05;64.27
64874;HTU21D;51367;45.204;38.576;2022-09-09T03:18:53;9.00;64.30
64874;HTU21D;51367;45.204;38.576;2022-09-09T03:21:19;8.96;64.49
64874;HTU21D;51367;45.204;38.576;2022-09-09T03:23:45;8.94;64.62
64874;HTU21D;51367;45.204;38.576;2022-09-09T03:26:12;8.93;64.71
64874;HTU21D;51367;45.204;38.576;2022-09-09T03:28:43;8.96;64.74
64874;HTU21D;51367;45.204;38.576;2022-09-09T03:31:12;8.97;64.78
64874;HTU21D;51367;45.204;38.576;2022-09-09T03:33:40;9.04;64.81
64874;HTU21D;51367;45.204;38.576;2022-09-09T03:36:09;9.11;64.82
64874;HTU21D;51367;45.204;38.576;2022-09-09T03:38:36;9.22;64.79
64874;HTU21D;51367;45.204;38.576;2022-09-09T03:41:02;9.33;64.75
64874;HTU21D;51367;45.204;38.576;2022-09-09T03:43:30;9.40;64.68
64874;HTU21D;51367;45.204;38.576;2022-09-09T03:45:57;9.51;64.65
64874;HTU21D;51367;45.204;38.576;2022-09-09T03:48:25;9.63;64.66
64874;HTU21D;51367;45.204;38.576;2022-09-09T03:50:53;9.77;64.63
64874;HTU21D;51367;45.204;38.576;2022-09-09T03:53:21;9.90;64.59
64874;HTU21D;51367;45.204;38.576;2022-09-09T03:55:50;9.99;64.56
64874;HTU21D;51367;45.204;38.576;2022-09-09T03:58:18;10.09;64.55
64874;HTU21D;51367;45.204;38.576;2022-09-09T04:01:00;10.22;64.76
64874;HTU21D;51367;45.204;38.576;2022-09-09T04:03:27;10.38;64.61
64874;HTU21D;51367;45.204;38.576;2022-09-09T04:05:54;10.55;64.62
64874;HTU21D;51367;45.204;38.576;2022-09-09T04:08:22;10.75;64.58
64874;HTU21D;51367;45.204;38.576;2022-09-09T04:10:52;10.97;64.66
64874;HTU21D;51367;45.204;38.576;2022-09-09T04:13:19;11.19;64.83
64874;HTU21D;51367;45.204;38.576;2022-09-09T04:15:55;11.44;65.02
64874;HTU21D;51367;45.204;38.576;2022-09-09T04:18:22;11.71;64.85
64874;HTU21D;51367;45.204;38.576;2022-09-09T04:20:50;11.97;64.74
64874;HTU21D;51367;45.204;38.576;2022-09-09T04:23:19;12.29;64.69
64874;HTU21D;51367;45.204;38.576;2022-09-09T04:25:47;12.62;64.49
64874;HTU21D;51367;45.204;38.576;2022-09-09T04:28:15;12.96;64.07
64874;HTU21D;51367;45.204;38.576;2022-09-09T04:30:42;13.25;63.69
64874;HTU21D;51367;45.204;38.576;2022-09-09T04:33:09;13.45;63.78
64874;HTU21D;51367;45.204;38.576;2022-09-09T04:35:36;13.53;63.90
64874;HTU21D;51367;45.204;38.576;2022-09-09T04:38:02;13.64;64.18
64874;HTU21D;51367;45.204;38.576;2022-09-09T04:40:31;13.84;64.56
64874;HTU21D;51367;45.204;38.576;2022-09-09T04:43:02;14.11;64.92
64874;HTU21D;51367;45.204;38.576;2022-09-09T04:45:30;14.47;64.69
64874;HTU21D;51367;45.204;38.576;2022-09-09T04:47:57;14.83;64.14
64874;HTU21D;51367;45.204;38.576;2022-09-09T04:50:23;15.18;63.40
64874;HTU21D;51367;45.204;38.576;2022-09-09T04:53:00;15.46;62.66
64874;HTU21D;51367;45.204;38.576;2022-09-09T04:55:28;15.65;62.09
64874;HTU21D;51367;45.204;38.576;2022-09-09T04:57:54;15.76;61.77
64874;HTU21D;51367;45.204;38.576;2022-09-09T05:00:20;15.85;61.57
64874;HTU21D;51367;45.204;38.576;2022-09-09T05:02:48;15.91;61.52
64874;HTU21D;51367;45.204;38.576;2022-09-09T05:05:14;15.98;61.49
64874;HTU21D;51367;45.204;38.576;2022-09-09T05:07:41;16.08;61.47
64874;HTU21D;51367;45.204;38.576;2022-09-09T05:10:08;16.20;61.46
64874;HTU21D;51367;45.204;38.576;2022-09-09T05:12:35;16.33;61.37
64874;HTU21D;51367;45.204;38.576;2022-09-09T05:15:02;16.45;61.28
64874;HTU21D;51367;45.204;38.576;2022-09-09T05:17:29;16.54;61.15
64874;HTU21D;51367;45.204;38.576;2022-09-09T05:19:55;16.56;61.09
64874;HTU21D;51367;45.204;38.576;2022-09-09T05:22:21;16.63;61.16
64874;HTU21D;51367;45.204;38.576;2022-09-09T05:24:50;16.72;61.12
64874;HTU21D;51367;45.204;38.576;2022-09-09T05:27:18;16.80;61.10
64874;HTU21D;51367;45.204;38.576;2022-09-09T05:29:46;16.93;61.09
64874;HTU21D;51367;45.204;38.576;2022-09-09T05:32:14;17.09;60.99
64874;HTU21D;51367;45.204;38.576;2022-09-09T05:34:45;17.29;60.92
64874;HTU21D;51367;45.204;38.576;2022-09-09T05:37:12;17.48;60.83
64874;HTU21D;51367;45.204;38.576;2022-09-09T05:39:38;17.64;60.74
64874;HTU21D;51367;45.204;38.576;2022-09-09T05:42:05;17.85;60.67
64874;HTU21D;51367;45.204;38.576;2022-09-09T05:44:32;18.07;60.41
64874;HTU21D;51367;45.204;38.576;2022-09-09T05:46:59;18.28;60.09
64874;HTU21D;51367;45.204;38.576;2022-09-09T05:49:26;18.53;59.91
64874;HTU21D;51367;45.204;38.576;2022-09-09T05:51:52;18.72;59.64
64874;HTU21D;51367;45.204;38.576;2022-09-09T05:54:20;18.91;59.38
64874;HTU21D;51367;45.204;38.576;2022-09-09T05:56:49;19.09;59.02
64874;HTU21D;51367;45.204;38.576;2022-09-09T05:59:17;19.24;58.73
64874;HTU21D;51367;45.204;38.576;2022-09-09T06:01:44;19.37;58.36
64874;HTU21D;51367;45.204;38.576;2022-09-09T06:04:19;19.45;58.00
64874;HTU21D;51367;45.204;38.576;2022-09-09T06:06:48;19.52;57.80
64874;HTU21D;51367;45.204;38.576;2022-09-09T06:09:17;19.54;57.67
64874;HTU21D;51367;45.204;38.576;2022-09-09T06:11:44;19.66;57.77
64874;HTU21D;51367;45.204;38.576;2022-09-09T06:14:11;19.85;57.68
64874;HTU21D;51367;45.204;38.576;2022-09-09T06:16:38;20.04;57.29
64874;HTU21D;51367;45.204;38.576;2022-09-09T06:19:11;20.19;56.81
64874;HTU21D;51367;45.204;38.576;2022-09-09T06:21:39;20.40;56.68
64874;HTU21D;51367;45.204;38.576;2022-09-09T06:24:07;20.58;56.29
64874;HTU21D;51367;45.204;38.576;2022-09-09T06:26:38;20.64;55.68
64874;HTU21D;51367;45.204;38.576;2022-09-09T06:29:09;20.64;55.35
64874;HTU21D;51367;45.204;38.576;2022-09-09T06:31:36;20.57;55.04
64874;HTU21D;51367;45.204;38.576;2022-09-09T06:34:09;20.53;54.91
64874;HTU21D;51367;45.204;38.576;2022-09-09T06:36:39;20.48;54.87
64874;HTU21D;51367;45.204;38.576;2022-09-09T06:39:07;20.45;54.94
64874;HTU21D;51367;45.204;38.576;2022-09-09T06:41:37;20.51;54.93
64874;HTU21D;51367;45.204;38.576;2022-09-09T06:44:07;20.68;54.75
64874;HTU21D;51367;45.204;38.576;2022-09-09T06:46:39;20.86;54.82
64874;HTU21D;51367;45.204;38.576;2022-09-09T06:49:08;21.14;55.61
64874;HTU21D;51367;45.204;38.576;2022-09-09T06:51:36;21.52;55.54
64874;HTU21D;51367;45.204;38.576;2022-09-09T06:54:10;21.95;54.69
64874;HTU21D;51367;45.204;38.576;2022-09-09T06:56:39;22.26;53.82
64874;HTU21D;51367;45.204;38.576;2022-09-09T06:59:15;22.54;53.36
64874;HTU21D;51367;45.204;38.576;2022-09-09T07:01:43;22.72;52.93
64874;HTU21D;51367;45.204;38.576;2022-09-09T07:04:18;22.82;52.51
64874;HTU21D;51367;45.204;38.576;2022-09-09T07:06:45;22.87;52.43
64874;HTU21D;51367;45.204;38.576;2022-09-09T07:09:18;23.03;51.99
64874;HTU21D;51367;45.204;38.576;2022-09-09T07:11:49;22.98;51.16
64874;HTU21D;51367;45.204;38.576;2022-09-09T07:14:18;22.92;51.10
64874;HTU21D;51367;45.204;38.576;2022-09-09T07:16:47;22.98;51.19
64874;HTU21D;51367;45.204;38.576;2022-09-09T07:19:15;23.17;50.78
64874;HTU21D;51367;45.204;38.576;2022-09-09T07:21:43;23.40;50.55
64874;HTU21D;51367;45.204;38.576;2022-09-09T07:24:12;23.57;50.09
64874;HTU21D;51367;45.204;38.576;2022-09-09T07:26:40;23.58;49.56
64874;HTU21D;51367;45.204;38.576;2022-09-09T07:29:08;23.50;49.05
64874;HTU21D;51367;45.204;38.576;2022-09-09T07:31:36;23.39;49.05
64874;HTU21D;51367;45.204;38.576;2022-09-09T07:34:06;23.31;49.18
64874;HTU21D;51367;45.204;38.576;2022-09-09T07:36:38;23.30;48.59
64874;HTU21D;51367;45.204;38.576;2022-09-09T07:39:10;23.22;48.63
64874;HTU21D;51367;45.204;38.576;2022-09-09T07:41:38;23.27;48.82
64874;HTU21D;51367;45.204;38.576;2022-09-09T07:44:14;23.36;48.56
64874;HTU21D;51367;45.204;38.576;2022-09-09T07:46:42;23.43;48.53
64874;HTU21D;51367;45.204;38.576;2022-09-09T07:49:10;23.57;48.31
64874;HTU21D;51367;45.204;38.576;2022-09-09T07:51:42;23.73;47.86
64874;HTU21D;51367;45.204;38.576;2022-09-09T07:54:11;23.88;47.68
64874;HTU21D;51367;45.204;38.576;2022-09-09T07:56:41;23.99;47.22
64874;HTU21D;51367;45.204;38.576;2022-09-09T07:59:09;24.05;46.63
64874;HTU21D;51367;45.204;38.576;2022-09-09T08:01:43;24.04;45.99
64874;HTU21D;51367;45.204;38.576;2022-09-09T08:04:12;23.97;45.91
64874;HTU21D;51367;45.204;38.576;2022-09-09T08:06:45;23.88;45.82
64874;HTU21D;51367;45.204;38.576;2022-09-09T08:09:13;23.79;45.76
64874;HTU21D;51367;45.204;38.576;2022-09-09T08:11:40;23.62;45.99
64874;HTU21D;51367;45.204;38.576;2022-09-09T08:14:07;23.54;46.15
64874;HTU21D;51367;45.204;38.576;2022-09-09T08:16:37;23.56;46.02
64874;HTU21D;51367;45.204;38.576;2022-09-09T08:19:05;23.69;45.86
64874;HTU21D;51367;45.204;38.576;2022-09-09T08:21:35;23.85;45.34
64874;HTU21D;51367;45.204;38.576;2022-09-09T08:24:03;23.94;45.27
64874;HTU21D;51367;45.204;38.576;2022-09-09T08:26:41;24.12;44.79
64874;HTU21D;51367;45.204;38.576;2022-09-09T08:29:10;24.25;44.74
64874;HTU21D;51367;45.204;38.576;2022-09-09T08:31:48;24.41;44.55
64874;HTU21D;51367;45.204;38.576;2022-09-09T08:34:15;24.49;44.41
64874;HTU21D;51367;45.204;38.576;2022-09-09T08:36:44;24.57;43.96
64874;HTU21D;51367;45.204;38.576;2022-09-09T08:39:16;24.62;43.61
64874;HTU21D;51367;45.204;38.576;2022-09-09T08:50:29;24.63;41.90
64874;HTU21D;51367;45.204;38.576;2022-09-09T08:55:54;24.46;42.86
64874;HTU21D;51367;45.204;38.576;2022-09-09T08:58:47;24.46;42.93
64874;HTU21D;51367;45.204;38.576;2022-09-09T09:06:50;24.45;42.93
64874;HTU21D;51367;45.204;38.576;2022-09-09T09:12:06;24.58;42.27
64874;HTU21D;51367;45.204;38.576;2022-09-09T09:14:37;24.65;42.43
64874;HTU21D;51367;45.204;38.576;2022-09-09T09:17:13;24.68;42.19
64874;HTU21D;51367;45.204;38.576;2022-09-09T09:19:42;24.76;42.32
64874;HTU21D;51367;45.204;38.576;2022-09-09T09:22:18;24.88;41.97
64874;HTU21D;51367;45.204;38.576;2022-09-09T09:24:51;25.00;41.97
64874;HTU21D;51367;45.204;38.576;2022-09-09T09:27:36;25.06;41.36
64874;HTU21D;51367;45.204;38.576;2022-09-09T09:30:17;25.10;41.23
64874;HTU21D;51367;45.204;38.576;2022-09-09T09:35:18;25.17;41.01
64874;HTU21D;51367;45.204;38.576;2022-09-09T09:37:45;25.24;40.84
64874;HTU21D;51367;45.204;38.576;2022-09-09T09:40:18;25.27;40.70
64874;HTU21D;51367;45.204;38.576;2022-09-09T09:43:03;25.25;40.55
64874;HTU21D;51367;45.204;38.576;2022-09-09T09:45:42;25.29;40.43
64874;HTU21D;51367;45.204;38.576;2022-09-09T09:48:12;25.33;40.31
64874;HTU21D;51367;45.204;38.576;2022-09-09T09:50:58;25.43;39.98
64874;HTU21D;51367;45.204;38.576;2022-09-09T09:53:27;25.51;39.85
64874;HTU21D;51367;45.204;38.576;2022-09-09T09:56:05;25.62;39.99
64874;HTU21D;51367;45.204;38.576;2022-09-09T09:58:49;25.80;39.62
64874;HTU21D;51367;45.204;38.576;2022-09-09T10:01:23;25.90;39.42
64874;HTU21D;51367;45.204;38.576;2022-09-09T10:04:14;25.94;37.70
64874;HTU21D;51367;45.204;38.576;2022-09-09T10:06:42;25.80;38.36
64874;HTU21D;51367;45.204;38.576;2022-09-09T10:09:25;25.71;38.67
64874;HTU21D;51367;45.204;38.576;2022-09-09T10:17:49;25.74;38.55
64874;HTU21D;51367;45.204;38.576;2022-09-09T10:36:51;26.24;38.02
64874;HTU21D;51367;45.204;38.576;2022-09-09T10:42:05;26.42;37.72
64874;HTU21D;51367;45.204;38.576;2022-09-09T10:47:41;26.62;37.29
64874;HTU21D;51367;45.204;38.576;2022-09-09T10:53:12;26.79;37.69
64874;HTU21D;51367;45.204;38.576;2022-09-09T10:55:51;26.84;37.86
64874;HTU21D;51367;45.204;38.576;2022-09-09T10:58:39;26.92;37.81
64874;HTU21D;51367;45.204;38.576;2022-09-09T11:01:23;27.05;37.64
64874;HTU21D;51367;45.204;38.576;2022-09-09T11:03:56;27.15;37.41
64874;HTU21D;51367;45.204;38.576;2022-09-09T11:06:36;27.17;36.97
64874;HTU21D;51367;45.204;38.576;2022-09-09T11:09:05;27.10;37.11
64874;HTU21D;51367;45.204;38.576;2022-09-09T11:14:13;26.87;37.05
64874;HTU21D;51367;45.204;38.576;2022-09-09T11:17:14;26.89;37.11
64874;HTU21D;51367;45.204;38.576;2022-09-09T11:19:42;26.87;36.99
64874;HTU21D;51367;45.204;38.576;2022-09-09T11:24:49;27.05;37.08
64874;HTU21D;51367;45.204;38.576;2022-09-09T11:27:28;27.13;37.10
64874;HTU21D;51367;45.204;38.576;2022-09-09T11:32:34;27.27;36.82
64874;HTU21D;51367;45.204;38.576;2022-09-09T11:35:29;27.32;36.66
64874;HTU21D;51367;45.204;38.576;2022-09-09T11:38:18;27.37;36.73
64874;HTU21D;51367;45.204;38.576;2022-09-09T11:40:46;27.36;36.58
64874;HTU21D;51367;45.204;38.576;2022-09-09T11:43:17;27.38;36.81
64874;HTU21D;51367;45.204;38.576;2022-09-09T11:45:51;27.40;36.27
64874;HTU21D;51367;45.204;38.576;2022-09-09T11:51:07;27.32;36.63
64874;HTU21D;51367;45.204;38.576;2022-09-09T11:53:35;27.41;36.40
64874;HTU21D;51367;45.204;38.576;2022-09-09T11:56:06;27.46;36.53
64874;HTU21D;51367;45.204;38.576;2022-09-09T11:58:38;27.54;36.27
64874;HTU21D;51367;45.204;38.576;2022-09-09T12:01:26;27.58;36.33
64874;HTU21D;51367;45.204;38.576;2022-09-09T12:04:13;27.64;36.33
64874;HTU21D;51367;45.204;38.576;2022-09-09T12:14:55;27.70;36.27
64874;HTU21D;51367;45.204;38.576;2022-09-09T12:17:25;27.68;35.84
64874;HTU21D;51367;45.204;38.576;2022-09-09T12:28:49;27.66;36.02
64874;HTU21D;51367;45.204;38.576;2022-09-09T12:34:15;27.64;35.78
64874;HTU21D;51367;45.204;38.576;2022-09-09T12:36:44;27.63;35.56
64874;HTU21D;51367;45.204;38.576;2022-09-09T12:39:19;27.60;35.80
64874;HTU21D;51367;45.204;38.576;2022-09-09T12:41:52;27.64;35.88
64874;HTU21D;51367;45.204;38.576;2022-09-09T12:44:26;27.69;35.64
64874;HTU21D;51367;45.204;38.576;2022-09-09T12:46:58;27.67;35.75
64874;HTU21D;51367;45.204;38.576;2022-09-09T12:49:35;27.71;35.74
64874;HTU21D;51367;45.204;38.576;2022-09-09T12:52:07;27.71;35.72
64874;HTU21D;51367;45.204;38.576;2022-09-09T12:54:36;27.72;35.89
64874;HTU21D;51367;45.204;38.576;2022-09-09T12:57:04;27.81;35.96
64874;HTU21D;51367;45.204;38.576;2022-09-09T12:59:39;27.93;35.87
64874;HTU21D;51367;45.204;38.576;2022-09-09T13:02:31;28.01;35.50
64874;HTU21D;51367;45.204;38.576;2022-09-09T13:05:12;27.91;35.46
64874;HTU21D;51367;45.204;38.576;2022-09-09T13:07:40;27.83;35.28
64874;HTU21D;51367;45.204;38.576;2022-09-09T13:10:11;27.65;35.21
64874;HTU21D;51367;45.204;38.576;2022-09-09T13:12:37;27.53;35.55
64874;HTU21D;51367;45.204;38.576;2022-09-09T13:15:03;27.45;35.65
64874;HTU21D;51367;45.204;38.576;2022-09-09T13:17:30;27.45;35.73
64874;HTU21D;51367;45.204;38.576;2022-09-09T13:19:57;27.46;35.85
64874;HTU21D;51367;45.204;38.576;2022-09-09T13:22:30;27.39;35.32
64874;HTU21D;51367;45.204;38.576;2022-09-09T13:25:05;27.24;35.62
64874;HTU21D;51367;45.204;38.576;2022-09-09T13:27:34;27.21;35.73
64874;HTU21D;51367;45.204;38.576;2022-09-09T13:30:00;27.21;35.75
64874;HTU21D;51367;45.204;38.576;2022-09-09T13:32:28;27.13;35.57
64874;HTU21D;51367;45.204;38.576;2022-09-09T13:34:59;27.06;35.24
64874;HTU21D;51367;45.204;38.576;2022-09-09T13:37:34;27.02;35.85
64874;HTU21D;51367;45.204;38.576;2022-09-09T13:40:01;27.04;35.95
64874;HTU21D;51367;45.204;38.576;2022-09-09T13:42:30;26.98;35.76
64874;HTU21D;51367;45.204;38.576;2022-09-09T13:44:58;26.83;35.77
64874;HTU21D;51367;45.204;38.576;2022-09-09T13:47:34;26.73;35.90
64874;HTU21D;51367;45.204;38.576;2022-09-09T13:50:22;26.66;35.93
64874;HTU21D;51367;45.204;38.576;2022-09-09T13:52:50;26.61;36.14
64874;HTU21D;51367;45.204;38.576;2022-09-09T13:55:20;26.60;36.18
64874;HTU21D;51367;45.204;38.576;2022-09-09T13:57:55;26.55;36.17
64874;HTU21D;51367;45.204;38.576;2022-09-09T14:00:22;26.53;36.31
64874;HTU21D;51367;45.204;38.576;2022-09-09T14:02:50;26.50;36.40
64874;HTU21D;51367;45.204;38.576;2022-09-09T14:05:17;26.53;36.44
64874;HTU21D;51367;45.204;38.576;2022-09-09T14:07:44;26.56;36.45
64874;HTU21D;51367;45.204;38.576;2022-09-09T14:10:12;26.64;36.40
64874;HTU21D;51367;45.204;38.576;2022-09-09T14:12:38;26.65;36.20
64874;HTU21D;51367;45.204;38.576;2022-09-09T14:15:05;26.57;36.33
64874;HTU21D;51367;45.204;38.576;2022-09-09T14:17:32;26.53;36.38
64874;HTU21D;51367;45.204;38.576;2022-09-09T14:19:59;26.51;36.44
64874;HTU21D;51367;45.204;38.576;2022-09-09T14:22:25;26.48;36.58
64874;HTU21D;51367;45.204;38.576;2022-09-09T14:24:51;26.39;36.63
64874;HTU21D;51367;45.204;38.576;2022-09-09T14:27:17;26.27;36.75
64874;HTU21D;51367;45.204;38.576;2022-09-09T14:29:44;26.19;36.89
64874;HTU21D;51367;45.204;38.576;2022-09-09T14:32:11;26.17;36.88
64874;HTU21D;51367;45.204;38.576;2022-09-09T14:34:37;26.15;36.88
64874;HTU21D;51367;45.204;38.576;2022-09-09T14:37:03;26.07;36.82
64874;HTU21D;51367;45.204;38.576;2022-09-09T14:39:30;26.02;36.92
64874;HTU21D;51367;45.204;38.576;2022-09-09T14:41:56;26.01;37.01
64874;HTU21D;51367;45.204;38.576;2022-09-09T14:44:22;25.98;37.02
64874;HTU21D;51367;45.204;38.576;2022-09-09T14:46:48;25.91;37.13
64874;HTU21D;51367;45.204;38.576;2022-09-09T14:49:16;25.84;37.18
64874;HTU21D;51367;45.204;38.576;2022-09-09T14:51:42;25.78;37.21
64874;HTU21D;51367;45.204;38.576;2022-09-09T14:54:08;25.67;37.32
64874;HTU21D;51367;45.204;38.576;2022-09-09T14:56:34;25.54;37.45
64874;HTU21D;51367;45.204;38.576;2022-09-09T14:59:01;25.45;37.56
64874;HTU21D;51367;45.204;38.576;2022-09-09T15:01:29;25.37;37.61
64874;HTU21D;51367;45.204;38.576;2022-09-09T15:04:04;25.33;37.60
64874;HTU21D;51367;45.204;38.576;2022-09-09T15:06:32;25.25;37.68
64874;HTU21D;51367;45.204;38.576;2022-09-09T15:08:59;25.15;37.80
64874;HTU21D;51367;45.204;38.576;2022-09-09T15:11:27;25.04;37.98
64874;HTU21D;51367;45.204;38.576;2022-09-09T15:13:54;24.89;38.20
64874;HTU21D;51367;45.204;38.576;2022-09-09T15:16:24;24.76;38.46
64874;HTU21D;51367;45.204;38.576;2022-09-09T15:18:53;24.65;38.64
64874;HTU21D;51367;45.204;38.576;2022-09-09T15:21:22;24.56;38.82
64874;HTU21D;51367;45.204;38.576;2022-09-09T15:23:49;24.45;38.99
64874;HTU21D;51367;45.204;38.576;2022-09-09T15:26:15;24.34;39.17
64874;HTU21D;51367;45.204;38.576;2022-09-09T15:28:44;24.23;39.37
64874;HTU21D;51367;45.204;38.576;2022-09-09T15:33:48;23.92;39.80
64874;HTU21D;51367;45.204;38.576;2022-09-09T15:36:25;23.73;40.10
64874;HTU21D;51367;45.204;38.576;2022-09-09T15:38:52;23.58;40.23
64874;HTU21D;51367;45.204;38.576;2022-09-09T15:41:19;23.45;40.44
64874;HTU21D;51367;45.204;38.576;2022-09-09T15:43:48;23.34;40.57
64874;HTU21D;51367;45.204;38.576;2022-09-09T15:48:56;23.07;40.90
64874;HTU21D;51367;45.204;38.576;2022-09-09T15:51:23;22.94;41.06
64874;HTU21D;51367;45.204;38.576;2022-09-09T15:53:56;22.80;41.29
64874;HTU21D;51367;45.204;38.576;2022-09-09T15:56:24;22.65;41.43
64874;HTU21D;51367;45.204;38.576;2022-09-09T15:58:50;22.54;41.59
64874;HTU21D;51367;45.204;38.576;2022-09-09T16:01:18;22.36;41.78
64874;HTU21D;51367;45.204;38.576;2022-09-09T16:03:45;22.16;42.01
64874;HTU21D;51367;45.204;38.576;2022-09-09T16:06:21;21.98;42.16
64874;HTU21D;51367;45.204;38.576;2022-09-09T16:08:50;21.87;42.27
64874;HTU21D;51367;45.204;38.576;2022-09-09T16:11:22;21.77;42.38
64874;HTU21D;51367;45.204;38.576;2022-09-09T16:13:51;21.64;42.48
64874;HTU21D;51367;45.204;38.576;2022-09-09T16:16:19;21.52;42.62
64874;HTU21D;51367;45.204;38.576;2022-09-09T16:18:55;21.44;42.79
64874;HTU21D;51367;45.204;38.576;2022-09-09T16:21:25;21.37;42.84
64874;HTU21D;51367;45.204;38.576;2022-09-09T16:23:52;21.28;42.94
64874;HTU21D;51367;45.204;38.576;2022-09-09T16:26:22;21.19;43.03
64874;HTU21D;51367;45.204;38.576;2022-09-09T16:28:49;21.10;43.15
64874;HTU21D;51367;45.204;38.576;2022-09-09T16:31:20;21.04;43.29
64874;HTU21D;51367;45.204;38.576;2022-09-09T16:33:46;20.91;43.39
64874;HTU21D;51367;45.204;38.576;2022-09-09T16:36:16;20.79;43.57
64874;HTU21D;51367;45.204;38.576;2022-09-09T16:38:42;20.69;43.76
64874;HTU21D;51367;45.204;38.576;2022-09-09T16:41:09;20.57;43.91
64874;HTU21D;51367;45.204;38.576;2022-09-09T16:43:36;20.49;44.06
64874;HTU21D;51367;45.204;38.576;2022-09-09T16:46:11;20.42;44.23
64874;HTU21D;51367;45.204;38.576;2022-09-09T16:48:38;20.34;44.29
64874;HTU21D;51367;45.204;38.576;2022-09-09T16:51:09;20.26;44.45
64874;HTU21D;51367;45.204;38.576;2022-09-09T16:53:36;20.17;44.48
64874;HTU21D;51367;45.204;38.576;2022-09-09T16:56:06;20.09;44.54
64874;HTU21D;51367;45.204;38.576;2022-09-09T16:58:32;19.99;44.70
64874;HTU21D;51367;45.204;38.576;2022-09-09T17:01:00;19.89;44.88
64874;HTU21D;51367;45.204;38.576;2022-09-09T17:03:27;19.83;45.01
64874;HTU21D;51367;45.204;38.576;2022-09-09T17:05:53;19.76;45.12
64874;HTU21D;51367;45.204;38.576;2022-09-09T17:08:19;19.71;45.26
64874;HTU21D;51367;45.204;38.576;2022-09-09T17:10:46;19.67;45.36
64874;HTU21D;51367;45.204;38.576;2022-09-09T17:13:13;19.60;45.47
64874;HTU21D;51367;45.204;38.576;2022-09-09T17:15:40;19.55;45.57
64874;HTU21D;51367;45.204;38.576;2022-09-09T17:18:11;19.48;45.67
64874;HTU21D;51367;45.204;38.576;2022-09-09T17:20:39;19.44;45.79
64874;HTU21D;51367;45.204;38.576;2022-09-09T17:23:06;19.37;45.92
64874;HTU21D;51367;45.204;38.576;2022-09-09T17:25:32;19.32;46.02
64874;HTU21D;51367;45.204;38.576;2022-09-09T17:27:59;19.30;46.06
64874;HTU21D;51367;45.204;38.576;2022-09-09T17:30:26;19.24;46.14